Time;durP1;ratioP1;P1;durP2;ratioP2;P2;SDS_P1;SDS_P2;PMS_P1;PMS_P2;Temp;Humidity;BMP_temperature;BMP_pressure;BME280_temperature;BME280_humidity;BME280_pressure;Samples;Min_cycle;Max_cycle;Signal;HPM_P1;HPM_P2
2021/06/27 00:00:31;;;;;;;17.17;15.73;;;16.10;99.90;;;;;;4997039;28;20468;-47
2021/06/27 00:03:00;;;;;;;17.80;16.10;;;16.20;99.90;;;;;;4997443;28;20952;-49
2021/06/27 00:05:35;;;;;;;17.77;16.30;;;16.10;99.90;;;;;;4981101;28;20486;-47
2021/06/27 00:08:03;;;;;;;16.90;15.40;;;16.10;99.90;;;;;;4993091;28;20438;-46
2021/06/27 00:10:32;;;;;;;17.03;15.53;;;16.00;99.90;;;;;;4993298;28;20469;-48
2021/06/27 00:13:00;;;;;;;17.60;16.00;;;16.00;99.90;;;;;;4997646;28;20472;-48
2021/06/27 00:15:31;;;;;;;17.87;16.23;;;16.00;99.90;;;;;;4994567;28;20465;-46
2021/06/27 00:18:03;;;;;;;18.10;16.60;;;15.90;99.90;;;;;;4997246;28;20483;-46
2021/06/27 00:20:36;;;;;;;16.80;15.30;;;15.90;99.90;;;;;;4996866;28;20468;-46
2021/06/27 00:23:04;;;;;;;17.60;16.03;;;15.90;99.90;;;;;;4991131;28;20472;-48
2021/06/27 00:25:35;;;;;;;17.27;15.67;;;15.80;99.90;;;;;;4996673;28;20504;-46
2021/06/27 00:28:04;;;;;;;17.90;16.50;;;15.80;99.90;;;;;;4997503;28;20465;-46
2021/06/27 00:30:31;;;;;;;18.50;16.90;;;15.70;99.90;;;;;;4996680;28;20480;-47
2021/06/27 00:33:01;;;;;;;18.07;16.47;;;15.70;99.90;;;;;;4996843;28;20469;-46
2021/06/27 00:35:29;;;;;;;17.13;15.73;;;15.80;99.90;;;;;;4999423;28;20479;-46
2021/06/27 00:37:57;;;;;;;18.30;16.50;;;15.80;99.90;;;;;;5000875;28;20487;-46
2021/06/27 00:40:27;;;;;;;17.07;15.67;;;15.70;99.90;;;;;;4999937;28;20473;-48
2021/06/27 00:42:55;;;;;;;18.77;17.07;;;15.70;99.90;;;;;;5000531;28;20469;-49
2021/06/27 00:45:24;;;;;;;16.93;15.53;;;15.70;99.90;;;;;;5000589;28;20500;-47
2021/06/27 00:47:54;;;;;;;18.67;16.73;;;15.60;99.90;;;;;;4999866;28;20473;-50
2021/06/27 00:50:26;;;;;;;17.43;15.83;;;15.60;99.90;;;;;;4993658;28;20512;-49
2021/06/27 00:52:53;;;;;;;19.13;17.43;;;15.60;99.90;;;;;;4993914;28;20480;-46
2021/06/27 00:55:24;;;;;;;18.27;16.37;;;15.60;99.90;;;;;;5000528;28;20471;-50
2021/06/27 00:57:53;;;;;;;17.57;16.07;;;15.50;99.90;;;;;;5000348;28;20728;-47
2021/06/27 01:00:23;;;;;;;17.40;15.90;;;15.50;99.90;;;;;;5000311;28;20472;-47
2021/06/27 01:02:51;;;;;;;17.00;15.40;;;15.50;99.90;;;;;;4999931;28;20769;-47
2021/06/27 01:05:21;;;;;;;19.10;17.50;;;15.40;99.90;;;;;;4993450;28;20493;-49
2021/06/27 01:07:50;;;;;;;16.00;14.70;;;15.50;99.90;;;;;;4991645;28;20805;-46
2021/06/27 01:10:17;;;;;;;17.20;15.70;;;15.40;99.90;;;;;;4999320;28;20473;-48
2021/06/27 01:12:46;;;;;;;18.23;16.53;;;15.40;99.90;;;;;;4999373;28;20567;-48
2021/06/27 01:15:14;;;;;;;25.33;23.23;;;15.40;99.90;;;;;;4999937;28;20814;-46
2021/06/27 01:17:44;;;;;;;28.47;25.97;;;15.40;99.90;;;;;;4999773;28;20476;-47
2021/06/27 01:20:13;;;;;;;20.73;18.70;;;15.30;99.90;;;;;;4999655;28;20467;-49
2021/06/27 01:22:41;;;;;;;19.47;17.67;;;15.30;99.90;;;;;;4999795;28;20921;-46
2021/06/27 01:25:11;;;;;;;18.10;16.50;;;15.30;99.90;;;;;;4999504;28;20500;-46
2021/06/27 01:27:39;;;;;;;17.60;16.03;;;15.30;99.90;;;;;;4998507;28;20479;-49
2021/06/27 01:30:11;;;;;;;18.47;16.97;;;15.20;99.90;;;;;;4999499;28;20483;-49
2021/06/27 01:32:40;;;;;;;19.10;17.50;;;15.20;99.90;;;;;;4993633;28;20751;-51
2021/06/27 01:35:09;;;;;;;18.83;16.93;;;15.20;99.90;;;;;;4999758;28;20465;-46
2021/06/27 01:37:36;;;;;;;18.07;16.27;;;15.10;99.90;;;;;;4999263;28;20469;-50
2021/06/27 01:40:07;;;;;;;18.03;16.47;;;15.10;99.90;;;;;;4999738;28;20452;-49
2021/06/27 01:42:34;;;;;;;17.70;16.10;;;15.10;99.90;;;;;;4998807;28;20468;-49
2021/06/27 01:45:10;;;;;;;17.27;15.73;;;15.00;99.90;;;;;;4999466;28;20500;-48
2021/06/27 01:47:37;;;;;;;18.50;16.90;;;15.00;99.90;;;;;;4998346;28;20740;-50
2021/06/27 01:50:06;;;;;;;17.90;16.40;;;15.00;99.90;;;;;;4999852;28;20769;-48
2021/06/27 01:52:34;;;;;;;19.27;17.47;;;15.00;99.90;;;;;;4998977;28;20474;-48
2021/06/27 01:55:02;;;;;;;18.80;16.93;;;15.00;99.90;;;;;;4999238;28;20472;-47
2021/06/27 01:57:30;;;;;;;17.50;15.80;;;15.00;99.90;;;;;;4998631;28;20500;-49
2021/06/27 01:59:57;;;;;;;17.90;16.30;;;15.00;99.90;;;;;;4999436;28;20477;-47
2021/06/27 02:02:27;;;;;;;17.53;16.10;;;15.00;99.90;;;;;;4999668;28;20890;-47
2021/06/27 02:04:55;;;;;;;17.20;15.80;;;14.90;99.90;;;;;;4986078;28;20496;-51
2021/06/27 02:07:24;;;;;;;19.70;17.93;;;14.90;99.90;;;;;;4998163;28;20568;-48
2021/06/27 02:09:52;;;;;;;18.50;16.97;;;14.90;99.90;;;;;;4998693;28;20465;-49
2021/06/27 02:12:19;;;;;;;17.43;15.93;;;14.80;99.90;;;;;;4998411;28;20455;-47
2021/06/27 02:14:47;;;;;;;16.73;15.13;;;14.80;99.90;;;;;;4998247;28;20436;-46
2021/06/27 02:17:14;;;;;;;17.43;15.80;;;14.80;99.90;;;;;;4998808;28;20813;-50
2021/06/27 02:19:41;;;;;;;16.87;15.27;;;14.80;99.90;;;;;;4998953;28;20464;-55
2021/06/27 02:22:08;;;;;;;17.40;15.90;;;14.90;99.90;;;;;;4998408;28;20916;-55
2021/06/27 02:24:36;;;;;;;18.03;16.47;;;14.80;99.90;;;;;;4998570;28;20473;-55
2021/06/27 02:27:03;;;;;;;19.00;17.10;;;14.80;99.90;;;;;;4997442;28;20527;-50
2021/06/27 02:29:30;;;;;;;18.33;16.73;;;14.80;99.90;;;;;;4998470;28;20473;-50
2021/06/27 02:31:59;;;;;;;18.80;17.10;;;14.70;99.90;;;;;;4998463;28;20448;-53
2021/06/27 02:34:26;;;;;;;16.67;15.27;;;14.70;99.90;;;;;;4998253;28;20477;-53
2021/06/27 02:36:54;;;;;;;19.53;17.57;;;14.70;99.90;;;;;;4998858;28;20882;-54
2021/06/27 02:39:21;;;;;;;17.40;15.57;;;14.60;99.90;;;;;;4998328;28;20856;-53
2021/06/27 02:41:48;;;;;;;17.37;15.87;;;14.60;99.90;;;;;;4998445;28;20451;-54
2021/06/27 02:44:15;;;;;;;18.43;16.60;;;14.70;99.90;;;;;;4998117;28;20455;-51
2021/06/27 02:46:43;;;;;;;17.27;15.77;;;14.60;99.90;;;;;;4997533;28;20794;-57
2021/06/27 02:49:11;;;;;;;17.13;15.73;;;14.60;99.90;;;;;;4997477;28;20492;-52
2021/06/27 02:51:38;;;;;;;17.67;16.07;;;14.60;99.90;;;;;;4998400;28;20465;-56
2021/06/27 02:54:06;;;;;;;16.80;15.40;;;14.60;99.90;;;;;;4997970;28;20465;-57
2021/06/27 02:56:33;;;;;;;18.17;16.50;;;14.50;99.90;;;;;;4992693;28;20467;-56
2021/06/27 02:59:00;;;;;;;17.50;16.00;;;14.50;99.90;;;;;;4998118;28;20531;-48
2021/06/27 03:01:27;;;;;;;16.90;15.30;;;14.50;99.90;;;;;;4998514;28;20528;-52
2021/06/27 03:03:54;;;;;;;18.10;16.50;;;14.40;99.90;;;;;;4983448;28;20474;-54
2021/06/27 03:06:23;;;;;;;17.77;15.80;;;14.40;99.90;;;;;;4986148;28;20490;-51
2021/06/27 03:08:52;;;;;;;17.47;15.87;;;14.40;99.90;;;;;;4992828;28;20470;-48
2021/06/27 03:11:19;;;;;;;17.83;16.13;;;14.40;99.90;;;;;;4998058;28;20469;-52
2021/06/27 03:13:49;;;;;;;17.23;15.63;;;14.40;99.90;;;;;;4993924;28;20440;-51
2021/06/27 03:16:16;;;;;;;17.90;16.30;;;14.40;99.90;;;;;;4997447;28;20464;-48
2021/06/27 03:55:43;;;;;;;17.60;15.40;;;14.50;99.90;;;;;;5159157;23;20500;-57
2021/06/27 03:58:10;;;;;;;17.90;16.33;;;14.40;99.90;;;;;;4998257;28;20480;-51
2021/06/27 04:00:37;;;;;;;17.10;15.60;;;14.50;99.90;;;;;;4997807;28;20496;-45
2021/06/27 04:03:05;;;;;;;18.00;16.20;;;14.50;99.90;;;;;;4991774;28;20452;-52
2021/06/27 04:05:32;;;;;;;17.30;15.80;;;14.60;99.90;;;;;;4992236;28;20543;-53
2021/06/27 04:11:22;;;;;;;15.93;14.53;;;14.80;99.90;;;;;;5000763;28;20416;-55
2021/06/27 04:13:50;;;;;;;15.50;14.00;;;14.80;99.90;;;;;;5000421;28;20473;-51
2021/06/27 04:16:17;;;;;;;16.17;14.83;;;14.80;99.90;;;;;;5000605;28;20494;-50
2021/06/27 04:18:44;;;;;;;17.93;16.30;;;14.90;99.90;;;;;;5000998;28;20833;-49
2021/06/27 04:21:11;;;;;;;18.43;16.67;;;15.00;99.90;;;;;;5000717;28;20899;-49
2021/06/27 04:23:39;;;;;;;16.33;15.03;;;15.10;99.90;;;;;;5001296;28;20980;-53
2021/06/27 04:26:07;;;;;;;16.67;15.27;;;15.20;99.90;;;;;;5000794;28;20496;-54
2021/06/27 04:28:35;;;;;;;15.27;13.97;;;15.30;99.90;;;;;;5001064;28;20468;-55
2021/06/27 04:31:02;;;;;;;16.20;14.90;;;15.40;99.90;;;;;;5000753;28;20480;-51
2021/06/27 04:33:30;;;;;;;15.90;14.60;;;15.50;99.90;;;;;;5000396;28;20465;-53
2021/06/27 04:35:57;;;;;;;16.40;14.93;;;15.60;99.90;;;;;;5000776;28;20904;-52
2021/06/27 04:38:25;;;;;;;16.83;15.53;;;15.60;99.90;;;;;;5000874;28;20457;-55
2021/06/27 04:40:52;;;;;;;15.67;14.17;;;15.70;99.90;;;;;;5000341;28;20475;-53
2021/06/27 04:43:19;;;;;;;15.30;13.97;;;15.60;99.90;;;;;;5000588;28;20931;-54
2021/06/27 04:45:49;;;;;;;17.27;15.47;;;15.50;99.90;;;;;;4999604;28;20499;-51
2021/06/27 04:48:16;;;;;;;15.23;13.80;;;15.60;99.90;;;;;;5000508;28;20476;-53
2021/06/27 04:50:46;;;;;;;17.27;15.77;;;15.60;99.90;;;;;;5000778;28;20472;-55
2021/06/27 04:53:14;;;;;;;15.57;13.83;;;15.80;99.90;;;;;;5000117;28;20473;-51
2021/06/27 04:55:42;;;;;;;16.10;14.80;;;15.80;99.90;;;;;;5000005;28;20524;-55
2021/06/27 04:58:09;;;;;;;16.27;14.73;;;15.90;99.90;;;;;;5000819;28;20471;-53
2021/06/27 05:00:37;;;;;;;16.90;15.50;;;15.90;99.90;;;;;;5000341;28;20469;-56
2021/06/27 05:03:06;;;;;;;15.93;14.63;;;16.00;99.90;;;;;;4993776;28;20989;-54
2021/06/27 05:05:34;;;;;;;16.30;14.90;;;16.00;99.90;;;;;;4996338;28;20489;-51
2021/06/27 05:08:01;;;;;;;15.13;13.83;;;16.00;99.90;;;;;;4999645;28;20817;-52
2021/06/27 05:10:28;;;;;;;16.40;15.00;;;16.10;99.90;;;;;;5000075;28;20567;-52
2021/06/27 05:12:55;;;;;;;15.30;14.00;;;16.20;99.90;;;;;;5000065;28;20460;-51
2021/06/27 05:15:22;;;;;;;15.40;14.10;;;16.40;99.90;;;;;;4999669;28;20504;-49
2021/06/27 05:17:49;;;;;;;16.20;14.80;;;16.40;99.90;;;;;;4999500;28;20464;-51
2021/06/27 05:20:18;;;;;;;16.53;14.87;;;16.50;99.90;;;;;;4999278;28;20469;-55
2021/06/27 05:22:45;;;;;;;15.77;14.37;;;16.60;99.90;;;;;;4998509;28;20465;-55
2021/06/27 05:25:13;;;;;;;15.17;13.97;;;16.70;99.90;;;;;;4999980;28;20744;-55
2021/06/27 05:27:40;;;;;;;16.97;15.13;;;16.90;99.90;;;;;;5000191;28;20500;-55
2021/06/27 05:30:09;;;;;;;16.50;14.93;;;17.00;99.90;;;;;;5000264;28;20468;-55
2021/06/27 05:32:36;;;;;;;15.13;13.60;;;17.10;99.90;;;;;;4999355;28;20475;-55
2021/06/27 05:35:04;;;;;;;14.87;13.57;;;17.20;99.90;;;;;;5000117;28;20874;-54
2021/06/27 05:37:32;;;;;;;14.73;13.53;;;17.40;99.90;;;;;;4999406;28;20465;-50
2021/06/27 05:40:00;;;;;;;14.90;13.70;;;17.50;99.90;;;;;;4999167;28;20461;-49
2021/06/27 05:42:27;;;;;;;15.37;13.97;;;17.60;99.90;;;;;;4999615;28;20981;-52
2021/06/27 05:44:57;;;;;;;16.13;14.40;;;17.70;99.90;;;;;;4999859;28;20504;-53
2021/06/27 06:24:54;;;;;;;12.17;11.07;;;21.60;99.90;;;;;;4298657;23;20490;-52
2021/06/27 06:27:24;;;;;;;11.53;10.53;;;21.80;99.90;;;;;;4979603;28;20505;-55
2021/06/27 06:29:51;;;;;;;11.90;10.90;;;21.80;99.90;;;;;;4979195;28;20782;-55
2021/06/27 06:32:18;;;;;;;11.23;10.20;;;21.90;99.90;;;;;;4978775;28;20469;-55
2021/06/27 06:34:45;;;;;;;10.57;9.70;;;22.10;99.90;;;;;;4978556;28;20477;-52
2021/06/27 06:37:12;;;;;;;10.97;10.17;;;22.40;99.90;;;;;;4979111;28;20476;-48
2021/06/27 06:39:39;;;;;;;11.80;11.00;;;22.70;99.90;;;;;;4974493;28;20529;-51
2021/06/27 06:42:10;;;;;;;11.10;10.20;;;23.00;99.90;;;;;;4978816;28;20529;-50
2021/06/27 06:44:37;;;;;;;10.03;9.23;;;23.00;99.90;;;;;;4978900;28;20831;-50
2021/06/27 06:47:04;;;;;;;10.60;9.90;;;23.40;99.90;;;;;;4979140;28;20501;-48
2021/06/27 06:49:31;;;;;;;10.57;9.87;;;23.70;99.90;;;;;;4978158;28;20474;-55
2021/06/27 06:51:59;;;;;;;11.70;10.50;;;24.00;99.90;;;;;;4978237;28;20492;-55
2021/06/27 06:54:26;;;;;;;10.87;10.07;;;24.10;99.90;;;;;;4978906;28;20894;-55
2021/06/27 06:56:53;;;;;;;10.80;9.90;;;24.10;99.90;;;;;;4978301;28;20821;-49
2021/06/27 06:59:21;;;;;;;10.33;9.63;;;24.20;99.90;;;;;;4978993;28;20470;-51
2021/06/27 07:01:48;;;;;;;9.53;8.83;;;24.20;96.80;;;;;;4978279;28;20887;-52
2021/06/27 07:04:15;;;;;;;10.43;9.50;;;24.20;96.60;;;;;;4968178;28;20468;-50
2021/06/27 07:06:44;;;;;;;9.90;9.10;;;24.30;95.80;;;;;;4974914;28;20500;-52
2021/06/27 07:09:11;;;;;;;10.07;9.27;;;24.30;95.80;;;;;;4978516;28;20473;-51
2021/06/27 07:11:41;;;;;;;10.53;9.83;;;24.30;94.40;;;;;;4978459;28;20465;-56
2021/06/27 07:14:08;;;;;;;10.17;9.43;;;24.30;94.90;;;;;;4978420;28;20883;-56
2021/06/27 07:16:37;;;;;;;10.10;9.20;;;24.20;96.40;;;;;;4978126;28;20925;-56
2021/06/27 07:19:07;;;;;;;9.77;8.93;;;24.40;96.20;;;;;;4978513;28;20480;-55
2021/06/27 07:21:39;;;;;;;10.20;9.40;;;24.40;96.90;;;;;;4978434;28;20465;-56
2021/06/27 07:24:09;;;;;;;10.10;9.30;;;24.50;93.90;;;;;;4980198;28;20595;-56
2021/06/27 07:26:38;;;;;;;10.30;9.50;;;24.40;93.80;;;;;;4977259;28;20501;-55
2021/06/27 07:29:06;;;;;;;10.87;10.07;;;24.40;94.20;;;;;;4978299;28;20465;-55
2021/06/27 07:31:36;;;;;;;10.43;9.73;;;24.40;94.00;;;;;;4978501;28;20970;-54
2021/06/27 07:34:04;;;;;;;10.57;9.77;;;24.40;93.50;;;;;;4978573;28;20436;-52
2021/06/27 07:36:31;;;;;;;10.73;10.00;;;24.60;93.50;;;;;;4977844;28;20470;-51
2021/06/27 07:38:58;;;;;;;9.93;9.23;;;24.90;93.80;;;;;;4978579;28;20469;-45
2021/06/27 07:41:25;;;;;;;10.90;10.00;;;25.30;93.20;;;;;;4977731;28;20470;-48
2021/06/27 07:43:53;;;;;;;10.70;9.90;;;25.50;92.40;;;;;;4978184;28;20440;-53
2021/06/27 07:46:21;;;;;;;9.83;9.13;;;26.00;91.30;;;;;;4981738;28;20498;-51
2021/06/27 07:48:48;;;;;;;9.93;9.23;;;26.30;89.50;;;;;;4982292;28;20771;-49
2021/06/27 07:51:17;;;;;;;10.83;9.97;;;26.50;84.40;;;;;;4982050;28;20477;-55
2021/06/27 08:30:23;;;;;;;8.67;7.97;;;28.70;99.90;;;;;;5460094;23;20472;-52
2021/06/27 08:32:52;;;;;;;9.30;8.63;;;28.90;99.90;;;;;;4961145;29;20463;-55
2021/06/27 08:35:20;;;;;;;9.20;8.30;;;28.80;99.90;;;;;;4961413;29;20537;-53
2021/06/27 08:37:52;;;;;;;8.43;7.90;;;29.10;99.90;;;;;;4961924;29;20553;-53
2021/06/27 09:20:10;;;;;;;7.17;6.67;;;28.70;99.90;;;;;;5357290;23;20502;-57
2021/06/27 09:22:40;;;;;;;6.97;6.57;;;28.90;99.90;;;;;;4956017;28;20471;-53
2021/06/27 09:25:21;;;;;;;7.27;6.80;;;28.90;99.90;;;;;;4960653;29;20480;-51
2021/06/27 09:28:06;;;;;;;7.47;6.97;;;29.10;99.90;;;;;;4961045;29;20808;-55
2021/06/27 09:30:35;;;;;;;7.63;7.03;;;29.40;99.90;;;;;;4961348;29;20470;-51
2021/06/27 09:33:04;;;;;;;7.10;6.60;;;29.70;99.90;;;;;;4960313;29;20911;-54
2021/06/27 09:35:54;;;;;;;8.20;7.40;;;29.40;99.90;;;;;;4960475;29;20474;-49
2021/06/27 09:38:44;;;;;;;7.87;7.10;;;29.50;99.90;;;;;;4961342;28;20978;-54
2021/06/27 09:41:18;;;;;;;6.60;6.17;;;29.40;99.90;;;;;;4957042;28;20800;-57
2021/06/27 09:43:53;;;;;;;8.27;7.77;;;29.30;99.90;;;;;;4960607;28;20469;-52
2021/06/27 09:46:31;;;;;;;8.13;7.53;;;28.90;99.90;;;;;;4960603;28;20466;-56
2021/06/27 09:49:00;;;;;;;8.27;7.67;;;29.20;99.90;;;;;;4960748;28;20478;-55
2021/06/27 09:51:32;;;;;;;8.03;7.53;;;29.50;99.90;;;;;;4960491;29;20478;-53
2021/06/27 09:53:59;;;;;;;7.53;6.93;;;29.70;99.90;;;;;;4954394;29;20778;-53
2021/06/27 09:56:28;;;;;;;6.80;6.30;;;30.30;99.90;;;;;;4954223;29;20471;-54
2021/06/27 09:58:58;;;;;;;7.60;7.10;;;30.70;99.90;;;;;;4954004;28;20467;-50
2021/06/27 10:01:26;;;;;;;7.23;6.80;;;30.60;99.90;;;;;;4957165;29;20910;-53
2021/06/27 10:03:56;;;;;;;8.20;7.60;;;30.40;99.90;;;;;;4949638;28;20477;-57
2021/06/27 10:06:24;;;;;;;9.13;8.23;;;30.00;99.90;;;;;;4955096;28;20458;-51
2021/06/27 10:08:54;;;;;;;7.67;7.10;;;29.50;99.90;;;;;;4957501;29;20474;-53
2021/06/27 10:11:26;;;;;;;8.83;7.87;;;29.30;99.90;;;;;;4959903;29;20471;-55
2021/06/27 10:13:55;;;;;;;7.40;6.80;;;29.40;99.90;;;;;;4959224;29;20467;-49
2021/06/27 10:16:28;;;;;;;8.20;7.60;;;29.60;99.90;;;;;;4958699;28;20470;-57
2021/06/27 10:18:55;;;;;;;8.57;7.77;;;29.30;99.90;;;;;;4954438;28;20776;-54
2021/06/27 10:21:25;;;;;;;7.60;7.00;;;29.40;99.90;;;;;;4959568;29;20477;-51
2021/06/27 10:23:57;;;;;;;8.00;7.50;;;29.80;99.90;;;;;;4959166;29;20470;-56
2021/06/27 10:26:26;;;;;;;8.40;7.80;;;30.20;99.90;;;;;;4959375;28;20490;-57
2021/06/27 10:28:54;;;;;;;7.57;7.17;;;30.80;99.90;;;;;;4959500;29;20773;-54
2021/06/27 10:31:23;;;;;;;7.20;6.80;;;31.30;99.90;;;;;;4959881;29;20939;-52
2021/06/27 10:33:54;;;;;;;7.60;7.20;;;31.50;99.90;;;;;;4959958;28;20493;-56
2021/06/27 10:36:29;;;;;;;7.50;7.10;;;31.80;99.90;;;;;;4959975;29;20496;-52
2021/06/27 10:39:00;;;;;;;7.67;7.07;;;32.50;99.90;;;;;;4959564;29;20470;-52
2021/06/27 10:41:54;;;;;;;8.53;8.03;;;31.80;99.90;;;;;;4959931;29;20860;-53
2021/06/27 11:21:46;;;;;;;7.43;6.93;;;32.30;99.90;;;;;;4802076;23;20494;-48
2021/06/27 11:24:15;;;;;;;7.57;7.07;;;32.60;99.90;;;;;;4978348;28;20461;-50
2021/06/27 11:26:55;;;;;;;8.00;7.40;;;32.90;99.90;;;;;;4978551;28;20465;-49
2021/06/27 11:29:49;;;;;;;7.43;6.93;;;33.20;99.90;;;;;;4978398;28;20579;-46
2021/06/27 11:32:40;;;;;;;6.10;5.70;;;33.00;99.90;;;;;;4974277;28;20473;-45
2021/06/27 11:35:13;;;;;;;7.47;6.77;;;33.40;99.90;;;;;;4978623;28;20721;-46
2021/06/27 11:37:45;;;;;;;6.77;6.37;;;33.50;99.90;;;;;;4979035;28;20469;-49
2021/06/27 11:40:12;;;;;;;6.70;6.27;;;34.40;99.90;;;;;;4978360;28;20469;-48
2021/06/27 11:42:49;;;;;;;6.00;5.60;;;34.90;99.90;;;;;;4978927;28;20451;-50
2021/06/27 11:45:36;;;;;;;7.17;6.67;;;34.60;99.90;;;;;;4972635;28;20832;-45
2021/06/27 11:48:06;;;;;;;6.67;6.27;;;34.10;99.90;;;;;;4978262;28;20797;-48
2021/06/27 11:50:35;;;;;;;6.70;6.40;;;34.30;99.90;;;;;;4978238;28;20447;-45
2021/06/27 11:53:05;;;;;;;6.87;6.47;;;34.40;99.90;;;;;;4988140;28;20480;-52
2021/06/27 11:55:34;;;;;;;6.73;6.33;;;34.00;99.90;;;;;;4996835;28;20475;-54
2021/06/27 11:58:02;;;;;;;6.30;6.00;;;33.80;99.90;;;;;;4997097;28;20464;-47
2021/06/27 12:00:35;;;;;;;5.60;5.20;;;33.10;99.90;;;;;;4988437;28;20736;-49
2021/06/27 12:03:11;;;;;;;5.77;5.47;;;32.50;99.90;;;;;;4972441;28;20480;-51
2021/06/27 12:05:39;;;;;;;6.13;5.73;;;32.70;99.90;;;;;;4970799;28;20763;-46
2021/06/27 12:08:09;;;;;;;5.67;5.37;;;33.30;99.90;;;;;;4977843;28;20501;-47
2021/06/27 12:10:37;;;;;;;6.93;6.53;;;33.80;99.90;;;;;;4977029;28;20469;-52
2021/06/27 12:13:06;;;;;;;7.37;6.97;;;34.30;99.90;;;;;;4968088;28;20469;-55
2021/06/27 12:54:24;;;;;;;6.10;5.70;;;30.30;99.90;;;;;;3936889;23;20516;-53
2021/06/27 12:57:04;;;;;;;7.67;7.23;;;29.80;99.90;;;;;;5001610;28;20468;-48
2021/06/27 12:59:50;;;;;;;7.47;6.87;;;29.90;99.90;;;;;;5000336;28;20460;-46
2021/06/27 13:02:20;;;;;;;7.30;6.80;;;31.10;99.90;;;;;;4998894;28;20473;-47
2021/06/27 13:04:56;;;;;;;7.53;7.00;;;31.60;99.90;;;;;;4987012;28;20472;-48
2021/06/27 13:07:25;;;;;;;7.73;7.23;;;31.40;99.90;;;;;;4995155;28;20503;-46
2021/06/27 13:10:09;;;;;;;7.10;6.70;;;31.00;99.90;;;;;;4999070;28;20465;-45
2021/06/27 13:12:59;;;;;;;7.90;7.40;;;30.70;99.90;;;;;;4997331;28;20908;-48
2021/06/27 13:15:28;;;;;;;6.40;6.00;;;30.90;99.90;;;;;;4996918;28;20500;-45
2021/06/27 13:18:02;;;;;;;6.97;6.47;;;31.30;99.90;;;;;;4999904;28;20468;-45
2021/06/27 13:20:40;;;;;;;6.20;5.90;;;31.20;99.90;;;;;;4999774;28;20465;-44
2021/06/27 13:23:11;;;;;;;6.73;6.33;;;31.10;99.90;;;;;;4999623;28;20471;-45
2021/06/27 13:25:45;;;;;;;6.33;5.93;;;30.80;99.90;;;;;;4999961;28;20473;-45
2021/06/27 13:28:19;;;;;;;7.20;6.80;;;30.60;99.90;;;;;;4999856;28;20538;-49
2021/06/27 13:30:58;;;;;;;6.93;6.53;;;30.00;99.90;;;;;;4999883;28;20480;-55
2021/06/27 13:33:27;;;;;;;7.53;7.13;;;29.90;99.90;;;;;;4999631;28;20473;-55
2021/06/27 13:36:06;;;;;;;6.80;6.40;;;30.30;99.90;;;;;;4999027;28;20465;-55
2021/06/27 13:38:35;;;;;;;6.43;6.03;;;30.80;99.90;;;;;;4999621;28;20456;-57
2021/06/27 13:41:05;;;;;;;6.70;6.30;;;31.00;99.90;;;;;;4999278;28;20563;-57
2021/06/27 13:43:36;;;;;;;6.10;5.70;;;31.10;99.90;;;;;;4997437;28;20467;-57
2021/06/27 13:46:06;;;;;;;6.90;6.50;;;31.20;99.90;;;;;;4996508;28;20476;-51
2021/06/27 13:48:34;;;;;;;7.40;6.90;;;30.50;99.90;;;;;;4999500;28;20768;-56
2021/06/27 14:26:48;;;;;;;7.37;6.87;;;29.50;99.90;;;;;;4983025;23;20521;-47
2021/06/27 14:29:15;;;;;;;11.60;10.73;;;29.60;99.90;;;;;;4980288;28;20501;-53
2021/06/27 14:31:42;;;;;;;8.70;8.10;;;29.60;99.90;;;;;;4978494;28;20782;-49
2021/06/27 14:34:09;;;;;;;7.73;7.23;;;29.80;99.90;;;;;;4978203;28;20778;-54
2021/06/27 14:36:36;;;;;;;7.73;7.27;;;30.20;99.90;;;;;;4978130;28;20913;-56
2021/06/27 14:39:04;;;;;;;7.37;6.87;;;30.40;99.90;;;;;;4973001;28;20532;-57
2021/06/27 14:41:31;;;;;;;7.90;7.30;;;30.80;99.90;;;;;;4978743;28;20473;-56
2021/06/27 14:44:02;;;;;;;7.00;6.60;;;31.10;99.90;;;;;;4979107;28;20500;-54
2021/06/27 14:46:29;;;;;;;6.97;6.27;;;31.20;99.90;;;;;;4979066;28;20509;-56
2021/06/27 14:48:57;;;;;;;7.70;7.30;;;30.60;99.90;;;;;;4978794;28;20479;-52
2021/06/27 14:51:26;;;;;;;8.37;7.70;;;30.10;99.90;;;;;;4978067;28;20861;-56
2021/06/27 14:53:54;;;;;;;8.17;7.67;;;29.90;99.90;;;;;;4977545;28;20480;-53
2021/06/27 14:56:21;;;;;;;8.40;7.90;;;29.60;99.90;;;;;;4977768;28;20500;-56
2021/06/27 14:58:50;;;;;;;7.50;7.00;;;29.30;99.90;;;;;;4977383;28;20512;-52
2021/06/27 16:15:07;;;;;;;9.30;8.67;;;25.30;99.90;;;;;;2946083;23;20521;-53
2021/06/27 16:17:36;;;;;;;8.53;7.93;;;25.00;79.70;;;;;;4996768;28;20468;-57
2021/06/27 16:20:04;;;;;;;11.30;10.50;;;25.10;79.70;;;;;;4994228;28;20468;-53
2021/06/27 16:59:24;;;;;;;10.17;9.47;;;23.10;99.90;;;;;;5231731;23;20478;-52
2021/06/27 17:01:51;;;;;;;10.50;9.60;;;23.10;99.90;;;;;;4995999;28;20461;-49
2021/06/27 17:04:19;;;;;;;9.03;8.33;;;23.30;99.90;;;;;;4989115;28;20475;-55
2021/06/27 17:06:46;;;;;;;9.97;9.27;;;23.20;99.90;;;;;;4992701;28;20472;-53
2021/06/27 17:09:15;;;;;;;10.30;9.60;;;23.20;99.90;;;;;;4993577;28;20931;-56
2021/06/27 17:11:44;;;;;;;9.37;8.60;;;23.10;99.90;;;;;;5000076;28;20464;-55
2021/06/27 17:14:12;;;;;;;8.90;8.20;;;22.70;99.90;;;;;;4993361;28;20611;-55
2021/06/27 17:16:43;;;;;;;8.87;8.27;;;22.60;99.90;;;;;;5000062;28;20567;-56
2021/06/27 17:19:10;;;;;;;9.40;8.70;;;22.60;99.90;;;;;;4992375;28;20837;-55
2021/06/27 17:21:38;;;;;;;8.80;8.03;;;22.70;99.90;;;;;;4995519;28;20443;-56
2021/06/27 17:24:06;;;;;;;8.13;7.53;;;22.70;99.90;;;;;;4999540;28;21176;-56
2021/06/27 18:36:16;;;;;;;8.53;7.73;;;20.70;99.90;;;;;;2884113;23;20482;-53
2021/06/27 18:38:44;;;;;;;8.73;7.80;;;20.60;99.90;;;;;;4974471;28;20466;-51
2021/06/27 19:20:49;;;;;;;9.50;8.70;;;19.60;99.90;;;;;;4842527;23;20988;-56
2021/06/27 20:00:15;;;;;;;11.90;10.70;;;19.50;99.90;;;;;;5394770;23;20447;-51
2021/06/27 20:02:42;;;;;;;12.47;11.47;;;19.50;99.90;;;;;;4993789;28;20465;-58
2021/06/27 20:05:13;;;;;;;11.30;10.40;;;19.50;99.90;;;;;;4992364;28;20897;-57
2021/06/27 20:07:40;;;;;;;10.97;10.07;;;19.50;99.90;;;;;;4995995;28;20475;-57
2021/06/27 20:10:08;;;;;;;12.30;9.50;;;19.40;99.90;;;;;;4996728;28;20500;-56
2021/06/27 20:12:38;;;;;;;11.20;10.30;;;19.40;99.90;;;;;;4987589;28;20469;-58
2021/06/27 20:15:08;;;;;;;10.50;9.60;;;19.30;99.90;;;;;;4988271;28;20479;-58
2021/06/27 20:17:37;;;;;;;11.07;10.07;;;19.40;99.90;;;;;;4995328;28;20465;-58
2021/06/27 20:20:06;;;;;;;11.07;10.20;;;19.40;99.90;;;;;;4994673;28;20443;-56
2021/06/27 20:22:40;;;;;;;11.47;10.30;;;19.40;99.90;;;;;;4996495;28;20465;-57
2021/06/27 20:25:13;;;;;;;10.80;9.80;;;19.50;99.90;;;;;;4988961;28;20559;-54
2021/06/27 20:27:43;;;;;;;10.60;9.80;;;19.40;99.90;;;;;;4996442;28;20547;-55
2021/06/27 20:30:13;;;;;;;10.17;9.27;;;19.40;99.90;;;;;;4994324;28;20562;-57
2021/06/27 20:32:42;;;;;;;11.20;10.40;;;19.30;99.90;;;;;;4997292;28;20449;-58
2021/06/27 20:35:10;;;;;;;10.20;9.30;;;19.40;99.90;;;;;;4996997;28;20508;-58
2021/06/27 20:37:41;;;;;;;11.43;10.43;;;19.30;99.90;;;;;;4996289;28;20469;-54
2021/06/27 20:40:11;;;;;;;10.60;9.53;;;19.40;99.90;;;;;;4996353;28;20874;-55
2021/06/27 20:42:41;;;;;;;10.43;9.63;;;19.40;99.90;;;;;;4997017;28;20451;-52
2021/06/27 20:45:13;;;;;;;9.73;8.93;;;19.40;99.90;;;;;;4995847;28;20448;-56
2021/06/27 20:47:40;;;;;;;10.17;9.37;;;19.40;99.90;;;;;;4996543;28;20782;-49
2021/06/27 20:50:10;;;;;;;9.67;8.80;;;19.40;99.90;;;;;;4996379;28;20789;-52
2021/06/27 20:52:41;;;;;;;9.20;8.40;;;19.40;99.90;;;;;;4996805;28;20476;-52
2021/06/27 20:55:13;;;;;;;10.90;9.03;;;19.40;99.90;;;;;;5001131;28;20480;-52
2021/06/27 21:33:18;;;;;;;11.03;10.03;;;19.10;99.90;;;;;;5382149;23;20497;-62
2021/06/27 21:35:46;;;;;;;9.80;9.00;;;19.20;99.90;;;;;;4961131;28;20464;-63
2021/06/27 22:17:33;;;;;;;9.20;8.50;;;19.00;99.90;;;;;;5072204;23;20904;-56
2021/06/27 22:20:00;;;;;;;10.57;9.67;;;19.00;99.90;;;;;;4998166;28;20502;-60
2021/06/27 22:56:19;;;;;;;9.50;8.80;;;18.80;99.90;;;;;;4119330;23;20858;-60
2021/06/27 22:58:52;;;;;;;9.67;8.77;;;18.80;99.90;;;;;;4935993;29;20472;-59
2021/06/27 23:01:22;;;;;;;9.80;9.00;;;18.90;99.90;;;;;;4939921;29;20471;-59
2021/06/27 23:03:49;;;;;;;9.83;9.03;;;18.80;99.90;;;;;;4928151;29;20468;-58
2021/06/27 23:06:17;;;;;;;9.60;8.77;;;18.90;99.90;;;;;;4939450;29;20541;-59
2021/06/27 23:08:44;;;;;;;9.13;8.43;;;18.90;99.90;;;;;;4938509;29;20499;-57
2021/06/27 23:11:12;;;;;;;10.10;9.20;;;18.90;99.90;;;;;;4940204;29;20519;-57
2021/06/27 23:13:42;;;;;;;11.60;10.50;;;18.80;99.90;;;;;;4939035;29;20472;-59
2021/06/27 23:16:09;;;;;;;10.73;9.93;;;18.80;99.90;;;;;;4939399;29;20486;-58
2021/06/27 23:18:37;;;;;;;10.80;10.00;;;18.70;99.90;;;;;;4940074;29;20467;-58